createdAt,value
2022-12-31T00:00:19.535Z,0.60
2022-12-31T00:04:26.315Z,0.73
2022-12-31T00:08:29.526Z,0.70
2022-12-31T00:12:34.262Z,0.70
2022-12-31T00:16:42.114Z,0.57
2022-12-31T00:20:43.696Z,0.65
2022-12-31T00:24:52.291Z,0.70
2022-12-31T00:28:59.333Z,0.70
2022-12-31T00:33:06.058Z,0.70
2022-12-31T00:37:10.678Z,1.20
2022-12-31T00:41:13.472Z,1.13
2022-12-31T00:45:18.492Z,0.50
2022-12-31T00:49:27.883Z,0.60
2022-12-31T00:53:37.634Z,0.75
2022-12-31T00:57:43.959Z,0.77
2022-12-31T01:01:55.316Z,0.80
2022-12-31T01:06:01.610Z,0.60
2022-12-31T01:10:07.569Z,0.65
2022-12-31T01:14:32.515Z,0.73
2022-12-31T01:18:34.117Z,0.85
2022-12-31T01:22:39.655Z,1.50
2022-12-31T01:26:42.645Z,0.50
2022-12-31T01:30:49.341Z,0.65
2022-12-31T01:34:51.871Z,0.82
2022-12-31T01:38:57.624Z,0.65
2022-12-31T01:42:59.224Z,1.10
2022-12-31T01:47:08.954Z,0.95
2022-12-31T01:51:14.012Z,0.90
2022-12-31T01:55:28.682Z,0.85
2022-12-31T01:59:39.042Z,0.98
2022-12-31T02:03:45.047Z,0.90
2022-12-31T02:07:50.858Z,0.80
2022-12-31T02:11:53.485Z,0.70
2022-12-31T02:16:21.647Z,0.68
2022-12-31T02:20:39.284Z,0.70
2022-12-31T02:29:11.006Z,0.70
2022-12-31T02:33:28.370Z,0.63
2022-12-31T02:37:33.577Z,0.80
2022-12-31T02:41:50.304Z,0.80
2022-12-31T02:46:08.230Z,0.63
2022-12-31T02:50:35.308Z,0.70
2022-12-31T02:54:58.486Z,0.75
2022-12-31T02:59:25.693Z,0.82
2022-12-31T03:03:27.933Z,0.90
2022-12-31T03:07:35.776Z,0.73
2022-12-31T03:11:59.443Z,0.80
2022-12-31T03:16:03.055Z,0.82
2022-12-31T03:20:23.624Z,1.02
2022-12-31T03:24:49.029Z,0.63
2022-12-31T03:28:50.559Z,0.70
2022-12-31T03:32:56.104Z,0.55
2022-12-31T03:36:57.696Z,0.70
2022-12-31T03:40:59.549Z,0.85
2022-12-31T03:45:01.135Z,0.77
2022-12-31T03:49:05.768Z,0.80
2022-12-31T03:53:07.349Z,0.70
2022-12-31T03:57:11.182Z,0.90
2022-12-31T04:01:16.391Z,0.68
2022-12-31T04:05:27.363Z,0.65
2022-12-31T04:09:30.740Z,0.70
2022-12-31T04:13:35.155Z,0.60
2022-12-31T04:17:43.927Z,0.60
2022-12-31T04:21:54.598Z,0.75
2022-12-31T04:25:56.139Z,0.60
2022-12-31T04:30:01.764Z,0.60
2022-12-31T04:34:17.573Z,0.75
2022-12-31T04:38:20.660Z,0.70
2022-12-31T04:42:35.757Z,0.70
2022-12-31T04:46:39.476Z,0.63
2022-12-31T04:50:52.283Z,0.65
2022-12-31T04:54:57.739Z,0.60
2022-12-31T04:59:03.901Z,0.57
2022-12-31T05:03:16.304Z,0.77
2022-12-31T05:07:20.983Z,0.70
2022-12-31T05:11:26.288Z,0.63
2022-12-31T05:15:33.291Z,0.60
2022-12-31T05:19:39.281Z,0.83
2022-12-31T05:23:41.108Z,0.70
2022-12-31T05:27:42.898Z,0.68
2022-12-31T05:31:44.322Z,0.73
2022-12-31T05:35:46.362Z,0.65
2022-12-31T05:39:49.752Z,0.60
2022-12-31T05:43:53.410Z,0.73
2022-12-31T05:47:59.919Z,0.68
2022-12-31T05:52:01.664Z,0.70
2022-12-31T06:04:58.710Z,0.80
2022-12-31T06:09:05.712Z,0.45
2022-12-31T06:13:10.789Z,0.67
2022-12-31T06:17:14.876Z,0.43
2022-12-31T06:21:21.780Z,0.60
2022-12-31T06:25:25.682Z,0.60
2022-12-31T06:29:27.717Z,0.60
2022-12-31T06:33:30.176Z,0.60
2022-12-31T06:37:37.410Z,0.82
2022-12-31T06:41:44.678Z,0.55
2022-12-31T06:45:46.631Z,0.70
2022-12-31T06:49:48.206Z,0.43
2022-12-31T06:53:53.396Z,0.70
2022-12-31T06:57:58.668Z,0.50
2022-12-31T07:02:21.984Z,0.52
2022-12-31T07:06:27.578Z,0.60
2022-12-31T07:10:44.865Z,0.50
2022-12-31T07:14:46.845Z,0.80
2022-12-31T07:18:58.150Z,0.60
2022-12-31T07:23:02.588Z,0.60
2022-12-31T07:27:38.631Z,0.70
2022-12-31T07:31:46.275Z,0.68
2022-12-31T07:45:37.796Z,0.70
2022-12-31T07:49:52.999Z,0.80
2022-12-31T07:53:58.741Z,0.73
2022-12-31T07:58:27.048Z,0.50
2022-12-31T08:03:07.082Z,0.68
2022-12-31T08:07:25.880Z,0.57
2022-12-31T08:11:34.896Z,0.50
2022-12-31T08:15:45.932Z,0.70
2022-12-31T08:19:56.925Z,0.70
2022-12-31T08:24:49.552Z,0.60
2022-12-31T08:29:30.284Z,0.60
2022-12-31T08:38:40.117Z,0.70
2022-12-31T08:43:01.025Z,0.60
2022-12-31T08:47:11.384Z,0.80
2022-12-31T08:51:17.511Z,0.70
2022-12-31T08:55:21.618Z,0.80
2022-12-31T08:59:50.841Z,0.68
2022-12-31T09:04:25.916Z,0.80
2022-12-31T09:08:43.098Z,0.70
2022-12-31T09:12:55.727Z,0.80
2022-12-31T09:17:31.899Z,0.65
2022-12-31T09:22:00.280Z,1.23
2022-12-31T09:26:23.162Z,0.90
2022-12-31T09:30:26.889Z,0.70
2022-12-31T09:34:46.356Z,0.60
2022-12-31T09:38:54.481Z,0.60
2022-12-31T09:43:18.412Z,0.50
2022-12-31T09:48:04.756Z,0.60
2022-12-31T09:52:37.440Z,0.70
2022-12-31T09:56:44.593Z,0.70
2022-12-31T10:00:56.344Z,0.70
2022-12-31T10:05:18.173Z,0.70
2022-12-31T10:09:57.049Z,0.65
2022-12-31T10:14:09.194Z,0.50
2022-12-31T10:18:41.310Z,0.90
2022-12-31T10:22:58.250Z,0.43
2022-12-31T10:27:36.630Z,0.50
2022-12-31T10:32:04.627Z,0.63
2022-12-31T10:42:20.340Z,0.75
2022-12-31T10:57:08.675Z,0.60
2022-12-31T11:15:06.803Z,0.50
2022-12-31T11:25:03.514Z,0.60
2022-12-31T11:29:36.189Z,0.50
2022-12-31T11:33:50.331Z,0.43
2022-12-31T11:38:01.669Z,0.43
2022-12-31T11:42:16.210Z,0.60
2022-12-31T11:47:06.969Z,0.50
2022-12-31T11:51:34.147Z,0.68
2022-12-31T11:55:49.009Z,0.63
2022-12-31T11:59:56.784Z,0.40
2022-12-31T12:04:01.771Z,0.50
2022-12-31T12:08:03.778Z,0.50
2022-12-31T12:12:06.283Z,0.55
2022-12-31T12:16:08.393Z,0.88
2022-12-31T12:20:20.173Z,0.60
2022-12-31T12:24:29.960Z,0.40
2022-12-31T12:28:45.392Z,0.40
2022-12-31T12:32:58.098Z,0.50
2022-12-31T12:37:00.221Z,0.40
2022-12-31T12:41:04.640Z,0.47
2022-12-31T12:45:26.719Z,1.00
2022-12-31T12:49:31.717Z,0.63
2022-12-31T12:53:40.678Z,0.60
2022-12-31T12:57:46.950Z,0.80
2022-12-31T13:02:02.475Z,0.40
2022-12-31T13:06:42.057Z,0.70
2022-12-31T13:10:59.141Z,0.60
2022-12-31T13:15:13.704Z,0.50
2022-12-31T13:19:36.217Z,0.60
2022-12-31T13:23:51.739Z,0.45
2022-12-31T13:27:57.560Z,1.67
2022-12-31T13:32:02.262Z,0.88
2022-12-31T13:36:05.988Z,0.60
2022-12-31T13:40:18.286Z,0.57
2022-12-31T13:44:35.116Z,1.13
2022-12-31T13:48:47.059Z,0.80
2022-12-31T13:53:04.696Z,0.50
2022-12-31T13:57:15.863Z,0.50
2022-12-31T14:01:34.088Z,0.60
2022-12-31T14:05:47.254Z,0.50
2022-12-31T14:10:04.399Z,1.23
2022-12-31T14:14:42.484Z,1.60
2022-12-31T14:19:25.991Z,1.85
2022-12-31T14:24:06.358Z,1.40
2022-12-31T14:28:31.197Z,1.67
2022-12-31T14:32:54.976Z,3.65
2022-12-31T14:37:43.771Z,2.08
2022-12-31T14:42:05.743Z,1.02
2022-12-31T14:46:53.151Z,1.02
2022-12-31T14:51:27.565Z,1.00
2022-12-31T15:11:12.167Z,0.80
2022-12-31T15:15:36.141Z,1.20
2022-12-31T15:24:55.026Z,0.70
2022-12-31T15:29:09.036Z,0.90
2022-12-31T15:33:39.828Z,1.00
2022-12-31T15:38:17.760Z,0.75
2022-12-31T15:42:39.278Z,0.90
2022-12-31T15:46:45.759Z,1.27
2022-12-31T15:56:00.135Z,0.95
2022-12-31T16:00:07.793Z,1.90
2022-12-31T16:08:30.366Z,1.00
2022-12-31T16:12:37.083Z,2.08
2022-12-31T16:21:47.684Z,1.10
2022-12-31T16:25:52.781Z,1.27
2022-12-31T16:30:00.609Z,1.40
2022-12-31T16:34:15.133Z,14.07
2022-12-31T16:38:20.683Z,10.75
2022-12-31T16:42:29.713Z,7.30
2022-12-31T16:46:31.948Z,5.40
2022-12-31T16:50:35.661Z,4.93
2022-12-31T16:54:39.012Z,5.97
2022-12-31T16:58:42.736Z,3.92
2022-12-31T17:02:49.867Z,4.00
2022-12-31T17:06:51.582Z,3.63
2022-12-31T17:10:53.641Z,3.95
2022-12-31T17:15:01.937Z,6.13
2022-12-31T17:19:04.119Z,7.93
2022-12-31T17:23:07.975Z,7.40
2022-12-31T17:27:09.820Z,7.35
2022-12-31T17:31:34.904Z,5.82
2022-12-31T17:35:46.446Z,4.57
2022-12-31T17:39:50.512Z,5.00
2022-12-31T17:43:54.972Z,6.18
2022-12-31T17:48:02.554Z,5.53
2022-12-31T17:52:04.379Z,5.18
2022-12-31T17:56:07.654Z,3.72
2022-12-31T18:00:17.049Z,3.15
2022-12-31T18:04:20.878Z,3.40
2022-12-31T18:08:23.079Z,2.47
2022-12-31T18:12:24.994Z,2.45
2022-12-31T18:16:26.761Z,2.63
2022-12-31T18:20:28.536Z,2.42
2022-12-31T18:24:44.122Z,2.22
2022-12-31T18:28:46.967Z,2.38
2022-12-31T18:32:50.755Z,2.28
2022-12-31T18:36:52.380Z,1.98
2022-12-31T18:40:56.178Z,2.10
2022-12-31T18:45:01.414Z,1.98
2022-12-31T18:49:03.409Z,2.85
2022-12-31T18:53:05.728Z,2.35
2022-12-31T18:57:07.281Z,2.60
2022-12-31T19:01:37.629Z,3.33
2022-12-31T19:05:39.131Z,2.92
2022-12-31T19:09:45.607Z,2.40
2022-12-31T19:13:47.993Z,2.47
2022-12-31T19:17:49.369Z,2.92
2022-12-31T19:21:50.759Z,3.60
2022-12-31T19:25:52.225Z,3.47
2022-12-31T19:29:53.940Z,3.20
2022-12-31T19:33:55.288Z,6.18
2022-12-31T19:37:56.790Z,8.43
2022-12-31T19:41:59.480Z,2.78
2022-12-31T19:46:03.356Z,2.58
2022-12-31T19:50:05.369Z,5.20
2022-12-31T19:54:07.621Z,4.03
2022-12-31T19:58:15.366Z,6.45
2022-12-31T20:06:19.237Z,8.50
2022-12-31T20:10:20.669Z,16.00
2022-12-31T20:14:22.196Z,12.20
2022-12-31T20:18:23.717Z,11.95
2022-12-31T20:22:25.172Z,27.35
2022-12-31T20:26:26.671Z,25.27
2022-12-31T20:30:28.240Z,40.97
2022-12-31T20:34:29.635Z,21.35
2022-12-31T20:38:31.387Z,14.18
2022-12-31T20:42:32.972Z,12.50
2022-12-31T20:46:39.356Z,8.77
2022-12-31T20:50:41.151Z,16.95
2022-12-31T20:54:42.560Z,22.90
2022-12-31T20:58:45.881Z,19.40
2022-12-31T21:02:56.345Z,17.30
2022-12-31T21:07:02.070Z,15.07
2022-12-31T21:11:24.444Z,13.27
2022-12-31T21:15:26.294Z,16.02
2022-12-31T21:19:27.779Z,12.75
2022-12-31T21:23:29.306Z,13.18
2022-12-31T21:27:30.977Z,17.25
2022-12-31T21:31:32.438Z,24.75
2022-12-31T21:35:46.714Z,27.85
2022-12-31T21:39:49.950Z,35.28
2022-12-31T21:43:51.395Z,27.00
2022-12-31T21:48:14.781Z,14.02
2022-12-31T21:52:31.532Z,9.20
2022-12-31T21:56:32.946Z,8.97
2022-12-31T22:00:53.055Z,9.43
2022-12-31T22:05:02.827Z,8.57
2022-12-31T22:09:05.760Z,9.00
2022-12-31T22:13:07.195Z,13.23
2022-12-31T22:17:10.045Z,6.47
2022-12-31T22:21:18.967Z,14.93
2022-12-31T22:25:21.539Z,40.95
2022-12-31T22:29:23.606Z,36.35
2022-12-31T22:33:25.007Z,33.05
2022-12-31T22:41:47.910Z,40.28
2022-12-31T22:45:49.269Z,32.17
2022-12-31T22:49:50.663Z,127.20
2022-12-31T22:53:52.177Z,83.35
2022-12-31T22:57:53.654Z,55.50
2022-12-31T23:01:55.135Z,36.97
2022-12-31T23:05:56.580Z,422.45
2022-12-31T23:10:16.563Z,245.05
2022-12-31T23:14:36.680Z,155.38
2022-12-31T23:19:03.479Z,255.07
2022-12-31T23:23:09.452Z,109.85
2022-12-31T23:27:11.498Z,87.82
2022-12-31T23:31:12.901Z,111.97
2022-12-31T23:35:14.438Z,58.15
2022-12-31T23:39:15.880Z,69.00
2022-12-31T23:43:21.932Z,62.55
2022-12-31T23:47:23.418Z,48.08
2022-12-31T23:51:24.846Z,53.85
2022-12-31T23:55:26.522Z,104.63
2022-12-31T23:59:30.491Z,89.82
